sensor_id;sensor_type;location;lat;lon;timestamp;temperature;humidity
20174;DHT22;10246;50.620;7.232;2022-09-30T00:02:25;7.90;8.20
20174;DHT22;10246;50.620;7.232;2022-09-30T00:04:52;7.90;8.10
20174;DHT22;10246;50.620;7.232;2022-09-30T00:07:19;7.90;7.70
20174;DHT22;10246;50.620;7.232;2022-09-30T00:09:46;7.90;7.30
20174;DHT22;10246;50.620;7.232;2022-09-30T00:12:13;7.90;7.50
20174;DHT22;10246;50.620;7.232;2022-09-30T00:14:39;7.90;7.90
20174;DHT22;10246;50.620;7.232;2022-09-30T00:17:06;7.90;7.80
20174;DHT22;10246;50.620;7.232;2022-09-30T00:19:35;7.80;7.00
20174;DHT22;10246;50.620;7.232;2022-09-30T00:22:01;7.80;7.60
20174;DHT22;10246;50.620;7.232;2022-09-30T00:24:28;7.80;7.00
20174;DHT22;10246;50.620;7.232;2022-09-30T00:26:55;7.80;7.50
20174;DHT22;10246;50.620;7.232;2022-09-30T00:29:22;7.80;8.00
20174;DHT22;10246;50.620;7.232;2022-09-30T00:31:49;7.80;8.10
20174;DHT22;10246;50.620;7.232;2022-09-30T00:34:15;7.80;7.90
20174;DHT22;10246;50.620;7.232;2022-09-30T00:36:45;7.70;7.50
20174;DHT22;10246;50.620;7.232;2022-09-30T00:39:14;7.70;7.50
20174;DHT22;10246;50.620;7.232;2022-09-30T00:41:43;7.70;8.10
20174;DHT22;10246;50.620;7.232;2022-09-30T00:44:49;7.70;8.10
20174;DHT22;10246;50.620;7.232;2022-09-30T00:47:39;7.50;7.60
20174;DHT22;10246;50.620;7.232;2022-09-30T00:50:20;7.50;8.10
20174;DHT22;10246;50.620;7.232;2022-09-30T00:52:51;7.50;7.50
20174;DHT22;10246;50.620;7.232;2022-09-30T00:55:29;7.40;7.40
20174;DHT22;10246;50.620;7.232;2022-09-30T00:57:58;7.40;8.00
20174;DHT22;10246;50.620;7.232;2022-09-30T01:00:25;7.40;8.50
20174;DHT22;10246;50.620;7.232;2022-09-30T01:02:53;7.50;9.10
20174;DHT22;10246;50.620;7.232;2022-09-30T01:05:21;7.60;9.20
20174;DHT22;10246;50.620;7.232;2022-09-30T01:07:50;7.60;8.70
20174;DHT22;10246;50.620;7.232;2022-09-30T01:10:17;7.60;9.10
20174;DHT22;10246;50.620;7.232;2022-09-30T01:12:44;7.60;9.90
20174;DHT22;10246;50.620;7.232;2022-09-30T01:15:11;7.70;10.60
20174;DHT22;10246;50.620;7.232;2022-09-30T01:17:46;7.70;9.90
20174;DHT22;10246;50.620;7.232;2022-09-30T01:20:37;7.60;9.80
20174;DHT22;10246;50.620;7.232;2022-09-30T01:23:31;7.60;10.30
20174;DHT22;10246;50.620;7.232;2022-09-30T01:26:19;7.60;10.00
20174;DHT22;10246;50.620;7.232;2022-09-30T01:29:27;7.40;8.90
20174;DHT22;10246;50.620;7.232;2022-09-30T01:32:07;7.30;9.00
20174;DHT22;10246;50.620;7.232;2022-09-30T01:34:43;7.10;9.20
20174;DHT22;10246;50.620;7.232;2022-09-30T01:37:21;7.20;9.80
20174;DHT22;10246;50.620;7.232;2022-09-30T01:39:56;7.20;11.10
20174;DHT22;10246;50.620;7.232;2022-09-30T01:42:32;7.30;10.30
20174;DHT22;10246;50.620;7.232;2022-09-30T01:45:07;7.20;9.30
20174;DHT22;10246;50.620;7.232;2022-09-30T01:47:42;7.20;9.10
20174;DHT22;10246;50.620;7.232;2022-09-30T01:50:16;7.10;9.80
20174;DHT22;10246;50.620;7.232;2022-09-30T01:52:48;7.20;9.60
20174;DHT22;10246;50.620;7.232;2022-09-30T01:55:22;7.00;9.70
20174;DHT22;10246;50.620;7.232;2022-09-30T01:57:55;6.90;9.60
20174;DHT22;10246;50.620;7.232;2022-09-30T02:00:22;6.90;9.40
20174;DHT22;10246;50.620;7.232;2022-09-30T02:02:55;6.90;10.40
20174;DHT22;10246;50.620;7.232;2022-09-30T02:05:27;7.00;10.50
20174;DHT22;10246;50.620;7.232;2022-09-30T02:07:57;7.00;10.10
20174;DHT22;10246;50.620;7.232;2022-09-30T02:10:28;7.00;10.30
20174;DHT22;10246;50.620;7.232;2022-09-30T02:13:00;7.00;9.50
20174;DHT22;10246;50.620;7.232;2022-09-30T02:15:31;7.10;9.80
20174;DHT22;10246;50.620;7.232;2022-09-30T02:18:04;7.20;9.80
20174;DHT22;10246;50.620;7.232;2022-09-30T02:20:35;7.10;9.50
20174;DHT22;10246;50.620;7.232;2022-09-30T02:23:08;7.00;8.60
20174;DHT22;10246;50.620;7.232;2022-09-30T02:25:39;6.90;9.20
20174;DHT22;10246;50.620;7.232;2022-09-30T02:28:10;6.90;9.70
20174;DHT22;10246;50.620;7.232;2022-09-30T02:30:44;7.00;10.50
20174;DHT22;10246;50.620;7.232;2022-09-30T02:33:16;7.10;9.90
20174;DHT22;10246;50.620;7.232;2022-09-30T02:35:47;7.10;9.60
20174;DHT22;10246;50.620;7.232;2022-09-30T02:38:17;7.10;9.10
20174;DHT22;10246;50.620;7.232;2022-09-30T02:40:46;7.00;8.60
20174;DHT22;10246;50.620;7.232;2022-09-30T02:43:15;6.90;9.20
20174;DHT22;10246;50.620;7.232;2022-09-30T02:45:49;6.80;9.80
20174;DHT22;10246;50.620;7.232;2022-09-30T02:48:25;6.80;10.50
20174;DHT22;10246;50.620;7.232;2022-09-30T02:51:00;6.70;10.30
20174;DHT22;10246;50.620;7.232;2022-09-30T02:53:32;6.60;10.50
20174;DHT22;10246;50.620;7.232;2022-09-30T02:56:11;6.60;10.80
20174;DHT22;10246;50.620;7.232;2022-09-30T02:58:40;6.60;10.20
20174;DHT22;10246;50.620;7.232;2022-09-30T03:01:10;6.60;10.50
20174;DHT22;10246;50.620;7.232;2022-09-30T03:03:41;6.70;10.80
20174;DHT22;10246;50.620;7.232;2022-09-30T03:06:09;6.70;10.60
20174;DHT22;10246;50.620;7.232;2022-09-30T03:08:36;6.70;10.40
20174;DHT22;10246;50.620;7.232;2022-09-30T03:11:03;6.70;10.40
20174;DHT22;10246;50.620;7.232;2022-09-30T03:14:08;6.70;10.40
20174;DHT22;10246;50.620;7.232;2022-09-30T03:16:52;6.50;10.10
20174;DHT22;10246;50.620;7.232;2022-09-30T03:19:39;6.40;10.80
20174;DHT22;10246;50.620;7.232;2022-09-30T03:22:21;6.30;13.40
20174;DHT22;10246;50.620;7.232;2022-09-30T03:25:13;6.30;15.10
20174;DHT22;10246;50.620;7.232;2022-09-30T03:27:50;6.30;17.40
20174;DHT22;10246;50.620;7.232;2022-09-30T03:30:19;6.30;17.50
20174;DHT22;10246;50.620;7.232;2022-09-30T03:32:57;6.30;17.70
20174;DHT22;10246;50.620;7.232;2022-09-30T03:35:31;6.40;18.00
20174;DHT22;10246;50.620;7.232;2022-09-30T03:38:03;6.40;18.00
20174;DHT22;10246;50.620;7.232;2022-09-30T03:40:36;6.40;18.80
20174;DHT22;10246;50.620;7.232;2022-09-30T03:43:15;6.50;18.40
20174;DHT22;10246;50.620;7.232;2022-09-30T03:45:50;6.50;18.50
20174;DHT22;10246;50.620;7.232;2022-09-30T03:48:20;6.50;18.80
20174;DHT22;10246;50.620;7.232;2022-09-30T03:50:49;6.60;18.90
20174;DHT22;10246;50.620;7.232;2022-09-30T03:53:16;6.80;19.10
20174;DHT22;10246;50.620;7.232;2022-09-30T03:55:45;6.90;19.10
20174;DHT22;10246;50.620;7.232;2022-09-30T03:58:13;6.90;18.70
20174;DHT22;10246;50.620;7.232;2022-09-30T04:00:46;6.90;19.00
20174;DHT22;10246;50.620;7.232;2022-09-30T04:03:13;6.90;18.90
20174;DHT22;10246;50.620;7.232;2022-09-30T04:05:40;7.00;19.00
20174;DHT22;10246;50.620;7.232;2022-09-30T04:08:08;7.10;18.70
20174;DHT22;10246;50.620;7.232;2022-09-30T04:10:36;7.00;18.50
20174;DHT22;10246;50.620;7.232;2022-09-30T04:13:04;7.00;18.30
20174;DHT22;10246;50.620;7.232;2022-09-30T04:15:31;7.10;18.60
20174;DHT22;10246;50.620;7.232;2022-09-30T04:17:57;7.10;18.60
20174;DHT22;10246;50.620;7.232;2022-09-30T04:20:24;7.00;18.40
20174;DHT22;10246;50.620;7.232;2022-09-30T04:22:51;7.10;18.50
20174;DHT22;10246;50.620;7.232;2022-09-30T04:25:19;7.00;18.80
20174;DHT22;10246;50.620;7.232;2022-09-30T04:27:46;7.00;19.20
20174;DHT22;10246;50.620;7.232;2022-09-30T04:30:13;7.00;19.60
20174;DHT22;10246;50.620;7.232;2022-09-30T04:32:41;7.00;19.40
20174;DHT22;10246;50.620;7.232;2022-09-30T04:35:09;7.00;19.70
20174;DHT22;10246;50.620;7.232;2022-09-30T04:37:40;7.00;19.60
20174;DHT22;10246;50.620;7.232;2022-09-30T04:40:07;7.00;19.70
20174;DHT22;10246;50.620;7.232;2022-09-30T04:42:37;7.00;19.70
20174;DHT22;10246;50.620;7.232;2022-09-30T04:45:04;7.00;19.70
20174;DHT22;10246;50.620;7.232;2022-09-30T04:47:31;7.00;19.90
20174;DHT22;10246;50.620;7.232;2022-09-30T04:49:58;7.00;19.50
20174;DHT22;10246;50.620;7.232;2022-09-30T04:52:25;7.00;19.30
20174;DHT22;10246;50.620;7.232;2022-09-30T04:54:51;7.10;19.40
20174;DHT22;10246;50.620;7.232;2022-09-30T04:57:18;7.10;19.80
20174;DHT22;10246;50.620;7.232;2022-09-30T04:59:46;7.20;20.00
20174;DHT22;10246;50.620;7.232;2022-09-30T05:02:15;7.10;19.50
20174;DHT22;10246;50.620;7.232;2022-09-30T05:04:42;7.20;19.50
20174;DHT22;10246;50.620;7.232;2022-09-30T05:07:08;7.20;19.70
20174;DHT22;10246;50.620;7.232;2022-09-30T05:09:35;7.10;19.40
20174;DHT22;10246;50.620;7.232;2022-09-30T05:12:02;7.20;19.40
20174;DHT22;10246;50.620;7.232;2022-09-30T05:14:29;7.20;19.60
20174;DHT22;10246;50.620;7.232;2022-09-30T05:16:57;7.20;19.70
20174;DHT22;10246;50.620;7.232;2022-09-30T05:19:25;7.10;19.70
20174;DHT22;10246;50.620;7.232;2022-09-30T05:21:52;7.10;19.90
20174;DHT22;10246;50.620;7.232;2022-09-30T05:24:19;7.10;19.90
20174;DHT22;10246;50.620;7.232;2022-09-30T05:26:46;7.20;19.90
20174;DHT22;10246;50.620;7.232;2022-09-30T05:29:13;7.30;19.70
20174;DHT22;10246;50.620;7.232;2022-09-30T05:31:39;7.20;19.90
20174;DHT22;10246;50.620;7.232;2022-09-30T05:34:08;7.30;19.80
20174;DHT22;10246;50.620;7.232;2022-09-30T05:36:35;7.30;19.60
20174;DHT22;10246;50.620;7.232;2022-09-30T05:39:02;7.30;19.40
20174;DHT22;10246;50.620;7.232;2022-09-30T05:41:29;7.30;19.00
20174;DHT22;10246;50.620;7.232;2022-09-30T05:43:56;7.30;19.00
20174;DHT22;10246;50.620;7.232;2022-09-30T05:46:23;7.30;19.20
20174;DHT22;10246;50.620;7.232;2022-09-30T05:48:52;7.30;19.40
20174;DHT22;10246;50.620;7.232;2022-09-30T05:51:20;7.30;19.30
20174;DHT22;10246;50.620;7.232;2022-09-30T05:53:46;7.20;19.50
20174;DHT22;10246;50.620;7.232;2022-09-30T05:56:13;7.30;19.40
20174;DHT22;10246;50.620;7.232;2022-09-30T05:58:40;7.30;19.40
20174;DHT22;10246;50.620;7.232;2022-09-30T06:01:10;7.30;19.70
20174;DHT22;10246;50.620;7.232;2022-09-30T06:03:37;7.30;19.70
20174;DHT22;10246;50.620;7.232;2022-09-30T06:06:05;7.30;19.70
20174;DHT22;10246;50.620;7.232;2022-09-30T06:08:33;7.40;19.60
20174;DHT22;10246;50.620;7.232;2022-09-30T06:11:00;7.30;19.30
20174;DHT22;10246;50.620;7.232;2022-09-30T06:13:27;7.30;19.40
20174;DHT22;10246;50.620;7.232;2022-09-30T06:15:55;7.30;18.90
20174;DHT22;10246;50.620;7.232;2022-09-30T06:18:22;7.30;18.90
20174;DHT22;10246;50.620;7.232;2022-09-30T06:20:50;7.30;19.10
20174;DHT22;10246;50.620;7.232;2022-09-30T06:23:16;7.30;19.20
20174;DHT22;10246;50.620;7.232;2022-09-30T06:25:44;7.40;19.00
20174;DHT22;10246;50.620;7.232;2022-09-30T06:28:11;7.30;18.60
20174;DHT22;10246;50.620;7.232;2022-09-30T06:30:38;7.30;18.40
20174;DHT22;10246;50.620;7.232;2022-09-30T06:33:05;7.20;18.40
20174;DHT22;10246;50.620;7.232;2022-09-30T06:35:32;7.20;19.00
20174;DHT22;10246;50.620;7.232;2022-09-30T06:37:58;7.20;19.10
20174;DHT22;10246;50.620;7.232;2022-09-30T06:40:25;7.10;18.90
20174;DHT22;10246;50.620;7.232;2022-09-30T06:42:58;7.20;18.90
20174;DHT22;10246;50.620;7.232;2022-09-30T06:45:26;7.00;17.50
20174;DHT22;10246;50.620;7.232;2022-09-30T06:47:55;7.00;17.90
20174;DHT22;10246;50.620;7.232;2022-09-30T06:50:22;6.90;18.70
20174;DHT22;10246;50.620;7.232;2022-09-30T06:52:49;7.00;19.00
20174;DHT22;10246;50.620;7.232;2022-09-30T06:55:16;7.00;19.30
20174;DHT22;10246;50.620;7.232;2022-09-30T06:57:44;7.10;19.30
20174;DHT22;10246;50.620;7.232;2022-09-30T07:00:13;7.10;19.20
20174;DHT22;10246;50.620;7.232;2022-09-30T07:02:40;7.10;19.30
20174;DHT22;10246;50.620;7.232;2022-09-30T07:05:08;7.20;19.40
20174;DHT22;10246;50.620;7.232;2022-09-30T07:07:34;7.20;19.30
20174;DHT22;10246;50.620;7.232;2022-09-30T07:10:02;7.20;19.20
20174;DHT22;10246;50.620;7.232;2022-09-30T07:12:29;7.30;19.30
20174;DHT22;10246;50.620;7.232;2022-09-30T07:14:56;7.40;19.10
20174;DHT22;10246;50.620;7.232;2022-09-30T07:17:26;7.50;19.10
20174;DHT22;10246;50.620;7.232;2022-09-30T07:19:53;7.50;18.70
20174;DHT22;10246;50.620;7.232;2022-09-30T07:22:20;7.50;18.90
20174;DHT22;10246;50.620;7.232;2022-09-30T07:24:54;7.50;19.10
20174;DHT22;10246;50.620;7.232;2022-09-30T07:27:21;7.50;19.00
20174;DHT22;10246;50.620;7.232;2022-09-30T07:29:48;7.50;18.70
20174;DHT22;10246;50.620;7.232;2022-09-30T07:32:15;7.60;19.00
20174;DHT22;10246;50.620;7.232;2022-09-30T07:34:44;7.70;18.90
20174;DHT22;10246;50.620;7.232;2022-09-30T07:37:13;7.80;19.30
20174;DHT22;10246;50.620;7.232;2022-09-30T07:39:41;7.80;18.70
20174;DHT22;10246;50.620;7.232;2022-09-30T07:42:08;7.80;18.00
20174;DHT22;10246;50.620;7.232;2022-09-30T07:44:35;7.90;18.40
20174;DHT22;10246;50.620;7.232;2022-09-30T07:47:08;7.90;18.40
20174;DHT22;10246;50.620;7.232;2022-09-30T07:49:36;8.00;18.10
20174;DHT22;10246;50.620;7.232;2022-09-30T07:52:05;8.10;17.60
20174;DHT22;10246;50.620;7.232;2022-09-30T07:54:33;8.20;17.50
20174;DHT22;10246;50.620;7.232;2022-09-30T07:57:01;8.30;17.30
20174;DHT22;10246;50.620;7.232;2022-09-30T07:59:29;8.40;16.60
20174;DHT22;10246;50.620;7.232;2022-09-30T08:01:57;8.50;16.30
20174;DHT22;10246;50.620;7.232;2022-09-30T08:04:25;8.60;16.50
20174;DHT22;10246;50.620;7.232;2022-09-30T08:06:53;8.70;15.70
20174;DHT22;10246;50.620;7.232;2022-09-30T08:09:23;8.80;14.80
20174;DHT22;10246;50.620;7.232;2022-09-30T08:11:50;8.90;14.20
20174;DHT22;10246;50.620;7.232;2022-09-30T08:14:20;9.00;13.60
20174;DHT22;10246;50.620;7.232;2022-09-30T08:16:47;9.10;12.50
20174;DHT22;10246;50.620;7.232;2022-09-30T08:19:16;9.10;12.50
20174;DHT22;10246;50.620;7.232;2022-09-30T08:21:43;9.20;12.50
20174;DHT22;10246;50.620;7.232;2022-09-30T08:24:10;9.30;12.00
20174;DHT22;10246;50.620;7.232;2022-09-30T08:26:39;9.40;12.00
20174;DHT22;10246;50.620;7.232;2022-09-30T08:29:06;9.50;11.50
20174;DHT22;10246;50.620;7.232;2022-09-30T08:31:35;9.50;10.90
20174;DHT22;10246;50.620;7.232;2022-09-30T08:34:02;9.60;11.10
20174;DHT22;10246;50.620;7.232;2022-09-30T08:36:29;9.80;10.20
20174;DHT22;10246;50.620;7.232;2022-09-30T08:38:56;9.80;9.90
20174;DHT22;10246;50.620;7.232;2022-09-30T08:44:29;10.10;8.20
20174;DHT22;10246;50.620;7.232;2022-09-30T08:47:08;10.10;7.60
20174;DHT22;10246;50.620;7.232;2022-09-30T08:49:44;10.20;7.60
20174;DHT22;10246;50.620;7.232;2022-09-30T08:52:18;10.40;7.50
20174;DHT22;10246;50.620;7.232;2022-09-30T08:54:49;10.50;6.70
20174;DHT22;10246;50.620;7.232;2022-09-30T08:57:17;10.60;6.20
20174;DHT22;10246;50.620;7.232;2022-09-30T08:59:48;10.70;5.90
20174;DHT22;10246;50.620;7.232;2022-09-30T09:02:21;10.90;4.90
20174;DHT22;10246;50.620;7.232;2022-09-30T09:04:53;11.10;4.60
20174;DHT22;10246;50.620;7.232;2022-09-30T09:07:33;11.20;3.80
20174;DHT22;10246;50.620;7.232;2022-09-30T09:10:14;11.30;3.10
20174;DHT22;10246;50.620;7.232;2022-09-30T09:12:54;11.40;2.50
20174;DHT22;10246;50.620;7.232;2022-09-30T09:15:41;11.60;2.50
20174;DHT22;10246;50.620;7.232;2022-09-30T09:18:33;11.70;1.40
20174;DHT22;10246;50.620;7.232;2022-09-30T09:21:16;11.90;1.00
20174;DHT22;10246;50.620;7.232;2022-09-30T09:23:45;12.00;1.00
20174;DHT22;10246;50.620;7.232;2022-09-30T09:26:14;12.20;1.00
20174;DHT22;10246;50.620;7.232;2022-09-30T09:28:46;12.30;1.00
20174;DHT22;10246;50.620;7.232;2022-09-30T09:31:16;12.60;1.00
20174;DHT22;10246;50.620;7.232;2022-09-30T09:33:44;12.70;1.00
20174;DHT22;10246;50.620;7.232;2022-09-30T09:36:18;12.90;1.00
20174;DHT22;10246;50.620;7.232;2022-09-30T09:39:10;12.90;1.00
20174;DHT22;10246;50.620;7.232;2022-09-30T09:41:44;13.10;1.00
20174;DHT22;10246;50.620;7.232;2022-09-30T09:44:23;13.30;1.00
20174;DHT22;10246;50.620;7.232;2022-09-30T09:46:59;13.40;1.00
20174;DHT22;10246;50.620;7.232;2022-09-30T09:49:32;13.60;1.00
20174;DHT22;10246;50.620;7.232;2022-09-30T09:52:12;13.80;1.00
20174;DHT22;10246;50.620;7.232;2022-09-30T09:54:43;14.00;1.00
20174;DHT22;10246;50.620;7.232;2022-09-30T09:57:11;14.00;1.00
20174;DHT22;10246;50.620;7.232;2022-09-30T09:59:54;14.20;1.00
20174;DHT22;10246;50.620;7.232;2022-09-30T10:02:26;14.40;1.00
20174;DHT22;10246;50.620;7.232;2022-09-30T10:04:54;14.50;1.00
20174;DHT22;10246;50.620;7.232;2022-09-30T10:07:26;14.60;1.00
20174;DHT22;10246;50.620;7.232;2022-09-30T10:10:15;14.80;1.00
20174;DHT22;10246;50.620;7.232;2022-09-30T10:12:43;15.00;1.00
20174;DHT22;10246;50.620;7.232;2022-09-30T10:15:19;15.20;1.00
20174;DHT22;10246;50.620;7.232;2022-09-30T10:17:53;15.50;1.00
20174;DHT22;10246;50.620;7.232;2022-09-30T10:20:27;15.60;1.00
20174;DHT22;10246;50.620;7.232;2022-09-30T10:23:01;15.60;1.00
20174;DHT22;10246;50.620;7.232;2022-09-30T10:25:29;15.80;1.00
20174;DHT22;10246;50.620;7.232;2022-09-30T10:27:58;15.90;1.00
20174;DHT22;10246;50.620;7.232;2022-09-30T10:30:40;16.00;1.00
20174;DHT22;10246;50.620;7.232;2022-09-30T10:33:22;16.20;1.00
20174;DHT22;10246;50.620;7.232;2022-09-30T10:36:04;16.40;1.00
20174;DHT22;10246;50.620;7.232;2022-09-30T10:38:33;16.60;1.00
20174;DHT22;10246;50.620;7.232;2022-09-30T10:41:01;16.70;1.00
20174;DHT22;10246;50.620;7.232;2022-09-30T10:43:31;16.90;1.00
20174;DHT22;10246;50.620;7.232;2022-09-30T10:46:00;17.00;1.00
20174;DHT22;10246;50.620;7.232;2022-09-30T10:48:33;17.00;1.00
20174;DHT22;10246;50.620;7.232;2022-09-30T10:51:02;17.00;1.00
20174;DHT22;10246;50.620;7.232;2022-09-30T10:53:32;17.10;1.00
20174;DHT22;10246;50.620;7.232;2022-09-30T10:56:00;17.20;1.00
20174;DHT22;10246;50.620;7.232;2022-09-30T10:58:41;17.30;1.00
20174;DHT22;10246;50.620;7.232;2022-09-30T11:01:16;17.20;1.00
20174;DHT22;10246;50.620;7.232;2022-09-30T11:03:53;17.30;1.00
20174;DHT22;10246;50.620;7.232;2022-09-30T11:06:21;17.40;1.00
20174;DHT22;10246;50.620;7.232;2022-09-30T11:08:54;17.50;1.00
20174;DHT22;10246;50.620;7.232;2022-09-30T11:11:26;17.70;1.00
20174;DHT22;10246;50.620;7.232;2022-09-30T11:13:55;17.80;1.00
20174;DHT22;10246;50.620;7.232;2022-09-30T11:16:31;17.90;1.00
20174;DHT22;10246;50.620;7.232;2022-09-30T11:19:03;17.80;1.00
20174;DHT22;10246;50.620;7.232;2022-09-30T11:21:38;18.00;1.00
20174;DHT22;10246;50.620;7.232;2022-09-30T11:24:25;18.00;1.00
20174;DHT22;10246;50.620;7.232;2022-09-30T11:26:59;18.10;1.00
20174;DHT22;10246;50.620;7.232;2022-09-30T11:29:41;18.20;1.00
20174;DHT22;10246;50.620;7.232;2022-09-30T11:32:19;18.30;1.00
20174;DHT22;10246;50.620;7.232;2022-09-30T11:34:58;18.30;1.00
20174;DHT22;10246;50.620;7.232;2022-09-30T11:37:39;18.30;1.00
20174;DHT22;10246;50.620;7.232;2022-09-30T11:40:29;18.50;1.00
20174;DHT22;10246;50.620;7.232;2022-09-30T11:43:04;18.60;1.00
20174;DHT22;10246;50.620;7.232;2022-09-30T11:45:38;18.80;1.00
20174;DHT22;10246;50.620;7.232;2022-09-30T11:48:28;18.90;1.00
20174;DHT22;10246;50.620;7.232;2022-09-30T11:51:08;18.90;1.00
20174;DHT22;10246;50.620;7.232;2022-09-30T11:53:45;18.90;1.00
20174;DHT22;10246;50.620;7.232;2022-09-30T11:56:32;19.00;1.00
20174;DHT22;10246;50.620;7.232;2022-09-30T11:59:05;18.90;1.00
20174;DHT22;10246;50.620;7.232;2022-09-30T12:01:36;18.90;1.00
20174;DHT22;10246;50.620;7.232;2022-09-30T12:04:10;19.20;1.00
20174;DHT22;10246;50.620;7.232;2022-09-30T12:06:42;19.30;1.00
20174;DHT22;10246;50.620;7.232;2022-09-30T12:09:15;19.20;1.00
20174;DHT22;10246;50.620;7.232;2022-09-30T12:11:49;19.20;1.00
20174;DHT22;10246;50.620;7.232;2022-09-30T12:14:23;19.30;1.00
20174;DHT22;10246;50.620;7.232;2022-09-30T12:16:51;19.30;1.00
20174;DHT22;10246;50.620;7.232;2022-09-30T12:19:25;19.40;1.00
20174;DHT22;10246;50.620;7.232;2022-09-30T12:22:00;19.50;1.00
20174;DHT22;10246;50.620;7.232;2022-09-30T12:24:34;19.60;1.00
20174;DHT22;10246;50.620;7.232;2022-09-30T12:27:02;19.90;1.00
20174;DHT22;10246;50.620;7.232;2022-09-30T12:29:32;20.00;1.00
20174;DHT22;10246;50.620;7.232;2022-09-30T12:32:47;20.10;1.00
20174;DHT22;10246;50.620;7.232;2022-09-30T12:35:34;20.40;1.00
20174;DHT22;10246;50.620;7.232;2022-09-30T12:38:18;20.30;1.00
20174;DHT22;10246;50.620;7.232;2022-09-30T12:40:59;20.00;1.00
20174;DHT22;10246;50.620;7.232;2022-09-30T12:43:54;19.90;1.00
20174;DHT22;10246;50.620;7.232;2022-09-30T12:46:40;20.20;1.00
20174;DHT22;10246;50.620;7.232;2022-09-30T12:49:14;20.40;1.00
20174;DHT22;10246;50.620;7.232;2022-09-30T12:51:48;20.60;1.00
20174;DHT22;10246;50.620;7.232;2022-09-30T12:54:19;20.70;1.00
20174;DHT22;10246;50.620;7.232;2022-09-30T12:56:53;20.50;1.00
20174;DHT22;10246;50.620;7.232;2022-09-30T12:59:24;20.60;1.00
20174;DHT22;10246;50.620;7.232;2022-09-30T13:01:52;20.60;1.00
20174;DHT22;10246;50.620;7.232;2022-09-30T13:04:31;20.50;1.00
20174;DHT22;10246;50.620;7.232;2022-09-30T13:07:14;20.50;1.00
20174;DHT22;10246;50.620;7.232;2022-09-30T13:10:01;20.60;1.00
20174;DHT22;10246;50.620;7.232;2022-09-30T13:12:40;20.60;1.00
20174;DHT22;10246;50.620;7.232;2022-09-30T13:15:39;20.60;1.00
20174;DHT22;10246;50.620;7.232;2022-09-30T13:21:19;20.60;1.00
20174;DHT22;10246;50.620;7.232;2022-09-30T13:23:47;20.50;1.00
20174;DHT22;10246;50.620;7.232;2022-09-30T13:26:38;20.60;1.00
20174;DHT22;10246;50.620;7.232;2022-09-30T13:29:34;20.50;1.00
20174;DHT22;10246;50.620;7.232;2022-09-30T13:32:05;20.40;1.00
20174;DHT22;10246;50.620;7.232;2022-09-30T13:34:33;20.40;1.00
20174;DHT22;10246;50.620;7.232;2022-09-30T13:37:31;20.50;1.00
20174;DHT22;10246;50.620;7.232;2022-09-30T13:39:59;20.60;1.00
20174;DHT22;10246;50.620;7.232;2022-09-30T13:42:34;20.60;1.00
20174;DHT22;10246;50.620;7.232;2022-09-30T13:45:10;20.40;1.00
20174;DHT22;10246;50.620;7.232;2022-09-30T13:47:43;20.30;1.00
20174;DHT22;10246;50.620;7.232;2022-09-30T13:50:14;20.30;1.00
20174;DHT22;10246;50.620;7.232;2022-09-30T13:52:46;20.50;1.00
20174;DHT22;10246;50.620;7.232;2022-09-30T13:55:19;20.60;1.00
20174;DHT22;10246;50.620;7.232;2022-09-30T13:57:58;20.50;1.00
20174;DHT22;10246;50.620;7.232;2022-09-30T14:00:38;20.60;1.00
20174;DHT22;10246;50.620;7.232;2022-09-30T14:03:16;20.70;1.00
20174;DHT22;10246;50.620;7.232;2022-09-30T14:06:00;20.70;1.00
20174;DHT22;10246;50.620;7.232;2022-09-30T14:11:56;20.70;1.00
20174;DHT22;10246;50.620;7.232;2022-09-30T14:14:59;20.70;1.00
20174;DHT22;10246;50.620;7.232;2022-09-30T14:17:40;20.60;1.00
20174;DHT22;10246;50.620;7.232;2022-09-30T14:20:37;20.50;1.00
20174;DHT22;10246;50.620;7.232;2022-09-30T14:23:12;20.50;1.00
20174;DHT22;10246;50.620;7.232;2022-09-30T14:25:46;20.60;1.00
20174;DHT22;10246;50.620;7.232;2022-09-30T14:28:17;20.60;1.00
20174;DHT22;10246;50.620;7.232;2022-09-30T14:30:47;20.60;1.00
20174;DHT22;10246;50.620;7.232;2022-09-30T14:33:29;20.70;1.00
20174;DHT22;10246;50.620;7.232;2022-09-30T14:35:59;20.70;1.00
20174;DHT22;10246;50.620;7.232;2022-09-30T14:38:29;20.70;1.00
20174;DHT22;10246;50.620;7.232;2022-09-30T14:40:59;20.70;1.00
20174;DHT22;10246;50.620;7.232;2022-09-30T14:43:31;20.50;1.00
20174;DHT22;10246;50.620;7.232;2022-09-30T14:46:05;20.20;1.00
20174;DHT22;10246;50.620;7.232;2022-09-30T14:48:33;20.20;1.00
20174;DHT22;10246;50.620;7.232;2022-09-30T14:51:05;20.00;1.00
20174;DHT22;10246;50.620;7.232;2022-09-30T14:53:34;19.90;1.00
20174;DHT22;10246;50.620;7.232;2022-09-30T14:56:02;19.70;1.00
20174;DHT22;10246;50.620;7.232;2022-09-30T14:58:37;19.60;1.00
20174;DHT22;10246;50.620;7.232;2022-09-30T15:01:11;19.50;1.00
20174;DHT22;10246;50.620;7.232;2022-09-30T15:03:43;19.60;1.00
20174;DHT22;10246;50.620;7.232;2022-09-30T15:06:16;19.70;1.00
20174;DHT22;10246;50.620;7.232;2022-09-30T15:08:44;19.90;1.00
20174;DHT22;10246;50.620;7.232;2022-09-30T15:11:17;19.90;1.00
20174;DHT22;10246;50.620;7.232;2022-09-30T15:13:44;19.80;1.00
20174;DHT22;10246;50.620;7.232;2022-09-30T15:16:23;19.80;1.00
20174;DHT22;10246;50.620;7.232;2022-09-30T15:18:50;19.80;1.00
20174;DHT22;10246;50.620;7.232;2022-09-30T15:21:19;19.80;1.00
20174;DHT22;10246;50.620;7.232;2022-09-30T15:23:48;19.70;1.00
20174;DHT22;10246;50.620;7.232;2022-09-30T15:26:16;19.70;1.00
20174;DHT22;10246;50.620;7.232;2022-09-30T15:28:43;19.70;1.00
20174;DHT22;10246;50.620;7.232;2022-09-30T15:31:20;19.70;1.00
20174;DHT22;10246;50.620;7.232;2022-09-30T15:34:00;19.60;1.00
20174;DHT22;10246;50.620;7.232;2022-09-30T15:36:27;19.50;1.00
20174;DHT22;10246;50.620;7.232;2022-09-30T15:38:54;19.50;1.00
20174;DHT22;10246;50.620;7.232;2022-09-30T15:41:21;19.40;1.00
20174;DHT22;10246;50.620;7.232;2022-09-30T15:43:49;19.30;1.00
20174;DHT22;10246;50.620;7.232;2022-09-30T15:46:26;19.10;1.00
20174;DHT22;10246;50.620;7.232;2022-09-30T15:48:57;19.00;1.00
20174;DHT22;10246;50.620;7.232;2022-09-30T15:51:30;19.00;1.00
20174;DHT22;10246;50.620;7.232;2022-09-30T15:53:59;18.90;1.00
20174;DHT22;10246;50.620;7.232;2022-09-30T15:56:31;18.80;1.00
20174;DHT22;10246;50.620;7.232;2022-09-30T15:59:00;18.70;1.00
20174;DHT22;10246;50.620;7.232;2022-09-30T16:01:36;18.70;1.00
20174;DHT22;10246;50.620;7.232;2022-09-30T16:04:07;18.70;1.00
20174;DHT22;10246;50.620;7.232;2022-09-30T16:06:41;18.70;1.00
20174;DHT22;10246;50.620;7.232;2022-09-30T16:09:20;18.70;1.00
20174;DHT22;10246;50.620;7.232;2022-09-30T16:11:55;18.60;1.00
20174;DHT22;10246;50.620;7.232;2022-09-30T16:14:25;18.60;1.00
20174;DHT22;10246;50.620;7.232;2022-09-30T16:16:54;18.30;1.00
20174;DHT22;10246;50.620;7.232;2022-09-30T16:19:23;18.10;1.00
20174;DHT22;10246;50.620;7.232;2022-09-30T16:21:51;18.20;1.00
20174;DHT22;10246;50.620;7.232;2022-09-30T16:24:42;18.10;1.00
20174;DHT22;10246;50.620;7.232;2022-09-30T16:27:21;18.10;1.00
20174;DHT22;10246;50.620;7.232;2022-09-30T16:29:47;18.00;1.00
20174;DHT22;10246;50.620;7.232;2022-09-30T16:32:14;18.00;1.00